createdAt,value
2019-04-21T00:00:54.282Z,11.90
2019-04-21T00:03:26.048Z,8.53
2019-04-21T00:06:08.929Z,8.43
2019-04-21T00:08:42.841Z,7.75
2019-04-21T00:11:16.173Z,8.70
2019-04-21T00:13:39.687Z,7.67
2019-04-21T00:16:00.328Z,10.10
2019-04-21T00:18:51.941Z,9.33
2019-04-21T00:21:25.510Z,9.33
2019-04-21T00:24:00.397Z,9.83
2019-04-21T00:26:33.315Z,8.48
2019-04-21T00:29:12.508Z,11.55
2019-04-21T00:31:35.287Z,14.10
2019-04-21T00:33:51.960Z,13.90
2019-04-21T00:36:27.803Z,10.95
2019-04-21T00:39:28.980Z,8.73
2019-04-21T00:41:48.418Z,9.23
2019-04-21T00:44:12.626Z,8.55
2019-04-21T00:46:44.886Z,13.45
2019-04-21T00:49:18.181Z,10.10
2019-04-21T00:52:11.455Z,8.70
2019-04-21T00:54:45.921Z,8.38
2019-04-21T00:57:11.611Z,9.98
2019-04-21T00:59:40.287Z,8.35
2019-04-21T01:02:09.838Z,9.58
2019-04-21T01:04:42.881Z,9.03
2019-04-21T01:07:12.581Z,9.95
2019-04-21T01:09:42.516Z,8.30
2019-04-21T01:12:12.618Z,10.32
2019-04-21T01:14:56.888Z,7.97
2019-04-21T01:17:23.008Z,9.75
2019-04-21T01:19:44.134Z,8.45
2019-04-21T01:22:02.717Z,10.40
2019-04-21T01:24:37.904Z,9.20
2019-04-21T01:27:12.705Z,9.08
2019-04-21T01:29:54.913Z,9.93
2019-04-21T01:32:31.190Z,12.28
2019-04-21T01:34:58.198Z,11.63
2019-04-21T01:37:34.404Z,9.63
2019-04-21T01:40:14.356Z,8.08
2019-04-21T01:42:33.474Z,8.00
2019-04-21T01:45:05.491Z,8.90
2019-04-21T01:47:31.423Z,8.23
2019-04-21T01:49:55.594Z,8.58
2019-04-21T01:52:47.953Z,7.40
2019-04-21T01:55:23.456Z,7.05
2019-04-21T01:57:49.579Z,6.35
2019-04-21T02:00:13.649Z,8.30
2019-04-21T02:02:59.408Z,7.35
2019-04-21T02:05:31.283Z,7.65
2019-04-21T02:07:59.798Z,7.60
2019-04-21T02:10:34.548Z,6.75
2019-04-21T02:13:03.527Z,7.42
2019-04-21T02:15:46.674Z,7.92
2019-04-21T02:18:07.323Z,6.03
2019-04-21T02:20:29.168Z,9.35
2019-04-21T02:25:44.659Z,7.78
2019-04-21T02:28:24.014Z,7.22
2019-04-21T02:31:04.963Z,7.50
2019-04-21T02:36:24.670Z,7.90
2019-04-21T02:38:44.842Z,8.75
2019-04-21T02:43:25.634Z,7.33
2019-04-21T02:46:04.244Z,6.62
2019-04-21T02:48:38.279Z,8.25
2019-04-21T02:53:53.660Z,7.33
2019-04-21T02:56:11.189Z,8.63
2019-04-21T03:01:50.300Z,7.12
2019-04-21T03:04:30.371Z,6.72
2019-04-21T03:07:07.043Z,8.73
2019-04-21T03:09:31.794Z,8.50
2019-04-21T03:14:50.341Z,10.05
2019-04-21T03:17:05.384Z,8.63
2019-04-21T03:19:45.199Z,8.80
2019-04-21T03:22:12.295Z,19.92
2019-04-21T03:24:53.400Z,8.55
2019-04-21T03:27:17.271Z,10.00
2019-04-21T03:29:45.570Z,8.98
2019-04-21T03:39:56.807Z,9.65
2019-04-21T03:45:06.957Z,8.33
2019-04-21T03:47:26.884Z,6.78
2019-04-21T03:49:54.720Z,8.15
2019-04-21T04:03:30.051Z,7.42
2019-04-21T04:08:31.891Z,9.13
2019-04-21T04:11:02.721Z,8.30
2019-04-21T04:13:39.367Z,9.38
2019-04-21T04:16:05.899Z,8.00
2019-04-21T04:18:40.825Z,9.60
2019-04-21T04:21:03.594Z,9.48
2019-04-21T04:23:41.664Z,7.22
2019-04-21T04:26:09.055Z,8.58
2019-04-21T04:28:49.877Z,9.05
2019-04-21T04:36:33.894Z,10.65
2019-04-21T04:38:52.263Z,8.43
2019-04-21T04:43:54.597Z,8.43
2019-04-21T04:46:17.888Z,7.97
2019-04-21T04:48:54.994Z,8.40
2019-04-21T04:51:36.711Z,7.62
2019-04-21T05:01:32.375Z,10.32
2019-04-21T05:04:20.567Z,7.03
2019-04-21T05:19:16.279Z,7.85
2019-04-21T05:23:59.985Z,17.05
2019-04-21T05:26:33.395Z,11.63
2019-04-21T05:29:00.672Z,12.53
2019-04-21T05:31:47.704Z,13.08
2019-04-21T05:34:16.985Z,18.70
2019-04-21T05:36:59.545Z,9.70
2019-04-21T05:39:41.956Z,9.40
2019-04-21T05:42:04.974Z,8.53
2019-04-21T05:45:01.826Z,8.00
2019-04-21T05:47:29.558Z,7.33
2019-04-21T05:49:55.651Z,6.87
2019-04-21T05:52:25.162Z,9.80
2019-04-21T05:55:05.292Z,6.92
2019-04-21T05:57:28.871Z,7.37
2019-04-21T06:00:01.213Z,8.68
2019-04-21T06:02:35.507Z,7.72
2019-04-21T06:07:40.986Z,8.38
2019-04-21T06:10:08.920Z,8.33
2019-04-21T06:12:44.970Z,7.45
2019-04-21T06:15:14.223Z,7.30
2019-04-21T06:17:43.916Z,8.68
2019-04-21T06:20:15.362Z,10.35
2019-04-21T06:22:50.516Z,7.55
2019-04-21T06:27:51.214Z,9.15
2019-04-21T06:30:24.000Z,10.40
2019-04-21T06:32:52.648Z,7.37
2019-04-21T06:35:45.542Z,8.60
2019-04-21T06:38:04.661Z,9.03
2019-04-21T06:40:38.641Z,12.28
2019-04-21T06:43:19.657Z,8.68
2019-04-21T06:45:45.841Z,8.38
2019-04-21T06:48:10.992Z,7.30
2019-04-21T06:50:47.534Z,7.80
2019-04-21T06:53:15.439Z,8.90
2019-04-21T06:55:41.936Z,13.75
2019-04-21T06:58:10.166Z,21.40
2019-04-21T07:00:43.230Z,17.35
2019-04-21T07:03:20.793Z,15.18
2019-04-21T07:05:58.968Z,12.53
2019-04-21T07:08:31.301Z,10.43
2019-04-21T07:10:52.090Z,9.28
2019-04-21T07:13:22.214Z,7.58
2019-04-21T07:16:02.911Z,8.28
2019-04-21T07:18:32.751Z,9.00
2019-04-21T07:20:56.378Z,9.83
2019-04-21T07:23:30.299Z,7.30
2019-04-21T07:25:57.907Z,8.20
2019-04-21T07:28:32.225Z,8.98
2019-04-21T07:31:03.718Z,10.08
2019-04-21T07:36:01.402Z,8.80
2019-04-21T07:38:33.244Z,8.18
2019-04-21T07:40:59.453Z,8.25
2019-04-21T07:43:29.752Z,9.25
2019-04-21T07:46:04.209Z,8.50
2019-04-21T07:48:49.888Z,6.47
2019-04-21T07:51:42.014Z,8.60
2019-04-21T07:54:13.407Z,7.65
2019-04-21T07:56:23.245Z,7.87
2019-04-21T07:59:31.553Z,8.20
2019-04-21T08:01:44.798Z,6.85
2019-04-21T08:04:33.268Z,8.18
2019-04-21T08:06:47.742Z,11.15
2019-04-21T08:09:11.908Z,9.08
2019-04-21T08:11:46.262Z,7.17
2019-04-21T08:14:18.122Z,7.83
2019-04-21T08:16:52.719Z,7.75
2019-04-21T08:19:18.986Z,6.35
2019-04-21T08:21:57.835Z,7.22
2019-04-21T08:24:19.800Z,8.80
2019-04-21T08:26:58.669Z,6.05
2019-04-21T08:32:02.609Z,6.83
2019-04-21T08:36:58.859Z,7.50
2019-04-21T08:39:37.314Z,15.68
2019-04-21T08:42:04.433Z,6.67
2019-04-21T08:44:40.094Z,6.28
2019-04-21T08:47:07.419Z,6.35
2019-04-21T08:49:41.490Z,9.88
2019-04-21T08:52:15.259Z,4.95
2019-04-21T08:54:43.978Z,5.40
2019-04-21T08:57:20.152Z,6.20
2019-04-21T08:59:55.218Z,5.37
2019-04-21T09:02:34.075Z,5.22
2019-04-21T09:04:58.513Z,4.85
2019-04-21T09:07:33.088Z,6.22
2019-04-21T09:10:04.230Z,5.47
2019-04-21T09:12:34.711Z,8.63
2019-04-21T09:15:08.828Z,5.40
2019-04-21T09:17:31.605Z,7.45
2019-04-21T09:20:13.394Z,6.20
2019-04-21T09:22:35.827Z,5.28
2019-04-21T09:25:09.545Z,3.85
2019-04-21T09:27:36.607Z,4.78
2019-04-21T09:29:59.349Z,4.55
2019-04-21T09:32:29.418Z,5.50
2019-04-21T09:34:58.104Z,4.72
2019-04-21T09:37:39.999Z,4.33
2019-04-21T09:40:00.899Z,5.62
2019-04-21T09:42:35.981Z,6.45
2019-04-21T09:45:04.928Z,4.83
2019-04-21T09:47:40.195Z,4.90
2019-04-21T09:50:09.548Z,5.00
2019-04-21T09:52:45.154Z,6.63
2019-04-21T09:55:15.906Z,4.28
2019-04-21T09:57:48.506Z,4.58
2019-04-21T10:00:20.637Z,5.55
2019-04-21T10:02:56.793Z,4.10
2019-04-21T10:05:19.096Z,3.55
2019-04-21T10:07:49.037Z,4.30
2019-04-21T10:10:19.281Z,5.45
2019-04-21T10:12:49.951Z,16.93
2019-04-21T10:15:23.202Z,3.85
2019-04-21T10:17:56.089Z,6.08
2019-04-21T10:20:26.452Z,4.87
2019-04-21T10:22:57.302Z,6.12
2019-04-21T10:25:28.265Z,5.78
2019-04-21T10:27:59.058Z,5.17
2019-04-21T10:30:29.001Z,5.70
2019-04-21T10:32:58.618Z,7.25
2019-04-21T10:35:28.838Z,10.10
2019-04-21T10:38:11.009Z,7.72
2019-04-21T10:40:32.616Z,4.60
2019-04-21T10:43:01.457Z,5.12
2019-04-21T10:45:31.177Z,4.22
2019-04-21T10:48:00.991Z,7.53
2019-04-21T10:50:31.384Z,5.37
2019-04-21T10:53:18.816Z,8.40
2019-04-21T10:56:04.191Z,3.92
2019-04-21T10:58:30.487Z,4.25
2019-04-21T11:01:08.430Z,3.42
2019-04-21T11:03:41.415Z,4.58
2019-04-21T11:06:14.769Z,4.33
2019-04-21T11:08:48.889Z,3.42
2019-04-21T11:11:16.283Z,3.45
2019-04-21T11:13:46.394Z,7.47
2019-04-21T11:16:17.250Z,7.28
2019-04-21T11:18:48.201Z,4.00
2019-04-21T11:21:18.780Z,4.17
2019-04-21T11:23:48.545Z,3.47
2019-04-21T11:26:18.191Z,3.75
2019-04-21T11:28:48.977Z,5.95
2019-04-21T11:31:20.779Z,22.45
2019-04-21T11:33:51.170Z,9.98
2019-04-21T11:36:21.621Z,6.85
2019-04-21T11:39:12.411Z,5.10
2019-04-21T11:41:30.151Z,4.58
2019-04-21T11:44:01.335Z,3.70
2019-04-21T11:46:31.219Z,4.83
2019-04-21T11:49:02.238Z,5.95
2019-04-21T11:51:33.178Z,10.13
2019-04-21T11:54:03.019Z,6.83
2019-04-21T11:56:32.804Z,3.95
2019-04-21T11:59:03.764Z,20.92
2019-04-21T12:01:33.796Z,26.80
2019-04-21T12:04:03.719Z,23.32
2019-04-21T12:06:39.711Z,15.38
2019-04-21T12:09:08.083Z,6.87
2019-04-21T12:11:39.003Z,11.43
2019-04-21T12:14:09.903Z,5.40
2019-04-21T12:16:41.092Z,8.18
2019-04-21T12:19:10.982Z,5.58
2019-04-21T12:21:53.282Z,3.98
2019-04-21T12:24:13.186Z,12.82
2019-04-21T12:26:44.470Z,8.45
2019-04-21T12:29:14.658Z,7.08
2019-04-21T12:32:03.426Z,6.97
2019-04-21T12:34:34.288Z,6.22
2019-04-21T12:37:04.634Z,4.33
2019-04-21T12:39:34.754Z,6.58
2019-04-21T12:42:04.814Z,4.92
2019-04-21T12:44:34.567Z,5.00
2019-04-21T12:47:04.287Z,4.53
2019-04-21T12:49:33.926Z,5.37
2019-04-21T12:52:04.180Z,4.67
2019-04-21T12:54:35.392Z,6.45
2019-04-21T12:57:05.458Z,5.97
2019-04-21T12:59:36.299Z,4.60
2019-04-21T13:02:07.504Z,4.78
2019-04-21T13:04:37.849Z,3.60
2019-04-21T13:07:07.917Z,4.80
2019-04-21T13:09:38.093Z,3.80
2019-04-21T13:12:08.977Z,3.15
2019-04-21T13:14:39.885Z,4.35
2019-04-21T13:17:09.921Z,4.22
2019-04-21T13:19:41.136Z,4.15
2019-04-21T13:22:12.104Z,4.25
2019-04-21T13:24:42.151Z,3.45
2019-04-21T13:27:12.760Z,4.35
2019-04-21T13:29:43.939Z,5.78
2019-04-21T13:32:14.394Z,4.47
2019-04-21T13:34:44.420Z,5.03
2019-04-21T13:37:15.239Z,4.33
2019-04-21T13:40:18.171Z,4.05
2019-04-21T13:42:34.269Z,4.90
2019-04-21T13:45:00.587Z,4.23
2019-04-21T13:47:28.755Z,4.75
2019-04-21T13:49:59.836Z,5.67
2019-04-21T13:52:30.944Z,6.47
2019-04-21T13:55:01.235Z,5.05
2019-04-21T13:57:32.424Z,4.70
2019-04-21T14:00:03.502Z,3.83
2019-04-21T14:02:34.517Z,5.65
2019-04-21T14:05:08.535Z,4.08
2019-04-21T14:07:38.530Z,4.55
2019-04-21T14:10:10.999Z,5.10
2019-04-21T14:12:42.534Z,4.35
2019-04-21T14:15:14.636Z,6.85
2019-04-21T14:17:44.655Z,4.45
2019-04-21T14:20:15.298Z,6.00
2019-04-21T14:22:46.352Z,4.00
2019-04-21T14:25:17.480Z,6.08
2019-04-21T14:27:50.010Z,6.62
2019-04-21T14:30:20.759Z,8.10
2019-04-21T14:32:50.380Z,4.75
2019-04-21T14:35:20.923Z,5.83
2019-04-21T14:37:50.986Z,4.97
2019-04-21T14:40:25.509Z,4.37
2019-04-21T14:42:54.061Z,6.42
2019-04-21T14:45:32.645Z,6.03
2019-04-21T14:48:05.074Z,5.05
2019-04-21T14:50:40.006Z,5.83
2019-04-21T14:53:23.612Z,4.03
2019-04-21T14:55:53.408Z,5.12
2019-04-21T14:58:23.390Z,4.97
2019-04-21T15:01:04.183Z,4.78
2019-04-21T15:03:34.335Z,5.22
2019-04-21T15:06:05.427Z,4.55
2019-04-21T15:08:35.431Z,4.60
2019-04-21T15:11:05.417Z,5.83
2019-04-21T15:13:35.538Z,5.60
2019-04-21T15:16:06.902Z,4.25
2019-04-21T15:18:36.884Z,3.72
2019-04-21T15:21:07.778Z,4.80
2019-04-21T15:23:38.256Z,3.15
2019-04-21T15:26:08.397Z,3.42
2019-04-21T15:28:40.523Z,4.22
2019-04-21T15:31:12.795Z,5.35
2019-04-21T15:33:41.313Z,5.12
2019-04-21T15:36:11.298Z,3.85
2019-04-21T15:38:41.097Z,3.65
2019-04-21T15:41:11.314Z,6.60
2019-04-21T15:43:42.642Z,3.98
2019-04-21T15:46:13.109Z,4.28
2019-04-21T15:48:43.049Z,4.30
2019-04-21T15:51:13.650Z,6.17
2019-04-21T15:53:45.835Z,4.55
2019-04-21T15:56:24.550Z,4.45
2019-04-21T15:59:01.707Z,6.95
2019-04-21T16:01:34.448Z,4.40
2019-04-21T16:04:06.122Z,5.42
2019-04-21T16:06:35.714Z,3.72
2019-04-21T16:09:14.230Z,3.87
2019-04-21T16:11:42.076Z,12.05
2019-04-21T16:14:11.911Z,8.10
2019-04-21T16:16:41.526Z,9.50
2019-04-21T16:19:12.334Z,7.75
2019-04-21T16:21:44.405Z,16.50
2019-04-21T16:24:14.266Z,8.08
2019-04-21T16:26:44.609Z,5.72
2019-04-21T16:29:15.351Z,4.62
2019-04-21T16:31:45.189Z,4.03
2019-04-21T16:34:15.802Z,6.35
2019-04-21T16:36:45.710Z,3.85
2019-04-21T16:39:15.614Z,6.25
2019-04-21T16:41:46.603Z,3.52
2019-04-21T16:44:16.845Z,3.62
2019-04-21T16:46:47.518Z,2.80
2019-04-21T16:49:17.918Z,4.40
2019-04-21T16:51:49.975Z,8.25
2019-04-21T16:54:21.997Z,3.58
2019-04-21T16:56:54.090Z,4.40
2019-04-21T16:59:26.403Z,4.10
2019-04-21T17:01:56.606Z,3.80
2019-04-21T17:04:26.562Z,3.90
2019-04-21T17:06:56.187Z,4.25
2019-04-21T17:09:26.528Z,3.75
2019-04-21T17:11:59.959Z,4.65
2019-04-21T17:14:46.249Z,3.83
2019-04-21T17:17:19.085Z,3.62
2019-04-21T17:19:37.935Z,3.45
2019-04-21T17:22:01.883Z,4.33
2019-04-21T17:24:32.577Z,5.70
2019-04-21T17:27:02.868Z,3.85
2019-04-21T17:29:32.741Z,5.37
2019-04-21T17:32:04.764Z,3.08
2019-04-21T17:34:35.639Z,3.05
2019-04-21T17:37:05.785Z,3.00
2019-04-21T17:39:36.664Z,6.15
2019-04-21T17:42:18.157Z,6.70
2019-04-21T17:44:39.270Z,4.60
2019-04-21T17:47:21.474Z,8.93
2019-04-21T17:49:41.135Z,4.30
2019-04-21T17:52:16.297Z,3.55
2019-04-21T17:54:50.619Z,4.28
2019-04-21T17:57:36.683Z,3.98
2019-04-21T18:00:14.210Z,3.52
2019-04-21T18:02:43.405Z,3.45
2019-04-21T18:05:15.200Z,3.27
2019-04-21T18:07:55.983Z,3.77
2019-04-21T18:10:12.600Z,3.12
2019-04-21T18:12:39.773Z,3.72
2019-04-21T18:15:16.327Z,3.05
2019-04-21T18:17:28.902Z,3.62
2019-04-21T18:19:59.689Z,4.05
2019-04-21T18:22:49.407Z,4.22
2019-04-21T18:25:33.220Z,3.10
2019-04-21T18:27:52.454Z,2.70
2019-04-21T18:30:46.784Z,6.28
2019-04-21T18:33:22.218Z,3.22
2019-04-21T18:35:58.611Z,4.42
2019-04-21T18:38:55.046Z,4.33
2019-04-21T18:41:05.610Z,3.98
2019-04-21T18:44:10.398Z,3.02
2019-04-21T18:46:42.301Z,3.00
2019-04-21T18:48:57.216Z,2.52
2019-04-21T18:51:40.297Z,3.80
2019-04-21T18:54:20.986Z,3.47
2019-04-21T18:56:33.858Z,4.28
2019-04-21T18:59:04.449Z,4.25
2019-04-21T19:01:36.534Z,4.03
2019-04-21T19:04:12.474Z,3.35
2019-04-21T19:06:54.538Z,5.28
2019-04-21T19:09:35.311Z,3.10
2019-04-21T19:11:59.581Z,4.80
2019-04-21T19:14:36.379Z,4.47
2019-04-21T19:17:39.690Z,3.85
2019-04-21T19:19:44.214Z,3.25
2019-04-21T19:22:12.908Z,5.40
2019-04-21T19:27:19.256Z,4.25
2019-04-21T19:29:52.171Z,4.75
2019-04-21T19:32:22.567Z,3.80
2019-04-21T19:34:34.800Z,5.72
2019-04-21T19:37:08.920Z,3.65
2019-04-21T19:39:42.871Z,3.17
2019-04-21T19:42:18.584Z,4.37
2019-04-21T19:44:52.065Z,5.87
2019-04-21T19:47:28.097Z,4.72
2019-04-21T19:49:58.279Z,3.98
2019-04-21T19:52:22.487Z,3.77
2019-04-21T19:54:44.867Z,3.90
2019-04-21T19:57:13.132Z,3.83
2019-04-21T19:59:49.638Z,4.90
2019-04-21T20:02:14.352Z,4.35
2019-04-21T20:04:52.205Z,3.90
2019-04-21T20:07:28.921Z,3.52
2019-04-21T20:10:06.649Z,3.35
2019-04-21T20:12:39.940Z,5.92
2019-04-21T20:15:20.334Z,6.67
2019-04-21T20:17:36.438Z,3.65
2019-04-21T20:19:52.254Z,5.65
2019-04-21T20:22:25.648Z,4.33
2019-04-21T20:25:02.562Z,5.33
2019-04-21T20:27:36.286Z,4.65
2019-04-21T20:30:15.841Z,4.08
2019-04-21T20:32:49.327Z,5.75
2019-04-21T20:35:25.121Z,3.12
2019-04-21T20:37:47.993Z,4.47
2019-04-21T20:40:12.238Z,3.50
2019-04-21T20:42:49.410Z,4.83
2019-04-21T20:45:38.393Z,4.05
2019-04-21T20:47:44.717Z,4.03
2019-04-21T20:50:28.642Z,4.08
2019-04-21T20:52:58.287Z,5.00
2019-04-21T20:55:23.222Z,4.17
2019-04-21T20:57:59.578Z,5.67
2019-04-21T21:00:45.682Z,3.08
2019-04-21T21:03:12.080Z,5.22
2019-04-21T21:05:37.095Z,6.00
2019-04-21T21:08:18.021Z,4.58
2019-04-21T21:10:38.752Z,4.05
2019-04-21T21:13:22.949Z,6.28
2019-04-21T21:15:51.339Z,4.87
2019-04-21T21:18:26.196Z,2.95
2019-04-21T21:20:52.948Z,4.10
2019-04-21T21:23:14.513Z,4.45
2019-04-21T21:25:52.989Z,4.58
2019-04-21T21:28:22.747Z,4.00
2019-04-21T21:30:52.695Z,5.10
2019-04-21T21:33:22.917Z,5.42
2019-04-21T21:35:56.724Z,5.00
2019-04-21T21:38:30.954Z,6.15
2019-04-21T21:40:54.637Z,5.15
2019-04-21T21:43:19.215Z,5.20
2019-04-21T21:45:52.129Z,5.20
2019-04-21T21:48:31.841Z,7.65
2019-04-21T21:51:02.054Z,6.70
2019-04-21T21:53:23.752Z,6.37
2019-04-21T21:55:53.008Z,4.33
2019-04-21T21:58:27.463Z,4.78
2019-04-21T22:01:00.507Z,3.72
2019-04-21T22:03:33.493Z,4.85
2019-04-21T22:06:04.986Z,3.37
2019-04-21T22:08:32.275Z,5.67
2019-04-21T22:11:03.306Z,6.17
2019-04-21T22:13:43.624Z,6.22
2019-04-21T22:16:10.385Z,5.15
2019-04-21T22:18:56.534Z,6.05
2019-04-21T22:21:18.916Z,7.12
2019-04-21T22:23:52.746Z,6.35
2019-04-21T22:26:11.442Z,5.17
2019-04-21T22:28:41.295Z,5.35
2019-04-21T22:31:16.398Z,6.08
2019-04-21T22:33:48.377Z,4.92
2019-04-21T22:36:26.473Z,4.95
2019-04-21T22:39:01.527Z,4.30
2019-04-21T22:41:28.189Z,4.50
2019-04-21T22:43:51.600Z,6.65
2019-04-21T22:46:20.244Z,4.62
2019-04-21T22:48:54.669Z,5.30
2019-04-21T22:51:30.289Z,5.78
2019-04-21T22:53:55.823Z,8.90
2019-04-21T22:56:29.720Z,6.28
2019-04-21T22:58:57.029Z,5.72
2019-04-21T23:01:34.855Z,5.47
2019-04-21T23:04:02.442Z,5.87
2019-04-21T23:06:32.685Z,4.70
2019-04-21T23:09:01.206Z,5.72
2019-04-21T23:11:38.671Z,6.80
2019-04-21T23:14:06.577Z,4.75
2019-04-21T23:16:37.810Z,4.85
2019-04-21T23:19:20.064Z,7.87
2019-04-21T23:21:58.156Z,5.65
2019-04-21T23:24:31.688Z,4.03
2019-04-21T23:26:53.713Z,6.40
2019-04-21T23:29:41.248Z,3.87
2019-04-21T23:31:59.197Z,9.25
2019-04-21T23:34:23.654Z,5.37
2019-04-21T23:36:53.085Z,3.80
2019-04-21T23:39:23.702Z,5.08
2019-04-21T23:41:51.598Z,4.05
2019-04-21T23:44:22.002Z,4.47
2019-04-21T23:46:54.677Z,4.95
2019-04-21T23:49:35.143Z,4.75
2019-04-21T23:52:00.472Z,5.28
2019-04-21T23:54:25.205Z,4.65
2019-04-21T23:56:55.925Z,4.55
2019-04-21T23:59:30.233Z,5.30
